sensor_id;sensor_type;location;lat;lon;timestamp;P1;durP1;ratioP1;P2;durP2;ratioP2
22861;SDS011;11598;50.652;6.172;2023-02-15T00:05:43;34.40;;;17.52;;
22861;SDS011;11598;50.652;6.172;2023-02-15T00:15:43;35.28;;;17.00;;
22861;SDS011;11598;50.652;6.172;2023-02-15T00:25:43;32.67;;;17.05;;
22861;SDS011;11598;50.652;6.172;2023-02-15T00:35:44;31.55;;;16.00;;
22861;SDS011;11598;50.652;6.172;2023-02-15T00:45:45;29.35;;;15.02;;
22861;SDS011;11598;50.652;6.172;2023-02-15T00:55:46;26.27;;;14.48;;
22861;SDS011;11598;50.652;6.172;2023-02-15T01:05:46;29.60;;;15.43;;
22861;SDS011;11598;50.652;6.172;2023-02-15T01:15:55;28.27;;;13.95;;
22861;SDS011;11598;50.652;6.172;2023-02-15T01:25:55;23.75;;;12.57;;
22861;SDS011;11598;50.652;6.172;2023-02-15T01:35:56;24.63;;;12.90;;
22861;SDS011;11598;50.652;6.172;2023-02-15T01:45:58;26.08;;;12.63;;
22861;SDS011;11598;50.652;6.172;2023-02-15T01:55:59;18.45;;;9.73;;
22861;SDS011;11598;50.652;6.172;2023-02-15T02:06:03;18.08;;;8.90;;
22861;SDS011;11598;50.652;6.172;2023-02-15T02:16:25;16.08;;;8.73;;
22861;SDS011;11598;50.652;6.172;2023-02-15T02:36:31;15.43;;;8.45;;
22861;SDS011;11598;50.652;6.172;2023-02-15T02:46:39;13.00;;;6.55;;
22861;SDS011;11598;50.652;6.172;2023-02-15T02:57:02;11.77;;;5.80;;
22861;SDS011;11598;50.652;6.172;2023-02-15T03:07:07;15.77;;;7.32;;
22861;SDS011;11598;50.652;6.172;2023-02-15T03:17:13;12.70;;;5.85;;
22861;SDS011;11598;50.652;6.172;2023-02-15T03:27:18;11.60;;;6.28;;
22861;SDS011;11598;50.652;6.172;2023-02-15T03:47:41;13.32;;;6.43;;
22861;SDS011;11598;50.652;6.172;2023-02-15T03:57:45;14.48;;;6.65;;
22861;SDS011;11598;50.652;6.172;2023-02-15T04:08:04;14.75;;;6.65;;
22861;SDS011;11598;50.652;6.172;2023-02-15T04:18:05;15.23;;;7.18;;
22861;SDS011;11598;50.652;6.172;2023-02-15T04:28:06;16.08;;;7.78;;
22861;SDS011;11598;50.652;6.172;2023-02-15T04:38:07;15.73;;;7.68;;
22861;SDS011;11598;50.652;6.172;2023-02-15T04:48:08;15.80;;;6.78;;
22861;SDS011;11598;50.652;6.172;2023-02-15T04:58:08;19.65;;;8.90;;
22861;SDS011;11598;50.652;6.172;2023-02-15T05:08:08;19.67;;;8.20;;
22861;SDS011;11598;50.652;6.172;2023-02-15T05:18:08;18.40;;;8.02;;
22861;SDS011;11598;50.652;6.172;2023-02-15T05:28:10;14.40;;;7.25;;
22861;SDS011;11598;50.652;6.172;2023-02-15T05:38:19;15.82;;;7.35;;
22861;SDS011;11598;50.652;6.172;2023-02-15T05:48:20;14.25;;;6.70;;
22861;SDS011;11598;50.652;6.172;2023-02-15T05:58:22;14.30;;;6.70;;
22861;SDS011;11598;50.652;6.172;2023-02-15T06:08:22;13.70;;;6.77;;
22861;SDS011;11598;50.652;6.172;2023-02-15T06:18:23;16.20;;;7.25;;
22861;SDS011;11598;50.652;6.172;2023-02-15T06:28:23;15.45;;;6.90;;
22861;SDS011;11598;50.652;6.172;2023-02-15T06:38:25;16.88;;;7.43;;
22861;SDS011;11598;50.652;6.172;2023-02-15T06:48:26;16.98;;;7.75;;
22861;SDS011;11598;50.652;6.172;2023-02-15T06:58:26;18.67;;;7.68;;
22861;SDS011;11598;50.652;6.172;2023-02-15T07:08:27;15.77;;;7.32;;
22861;SDS011;11598;50.652;6.172;2023-02-15T07:18:27;18.90;;;7.53;;
22861;SDS011;11598;50.652;6.172;2023-02-15T07:28:28;14.38;;;6.30;;
22861;SDS011;11598;50.652;6.172;2023-02-15T07:38:32;21.17;;;7.80;;
22861;SDS011;11598;50.652;6.172;2023-02-15T07:48:35;18.40;;;7.38;;
22861;SDS011;11598;50.652;6.172;2023-02-15T07:58:36;19.50;;;7.90;;
22861;SDS011;11598;50.652;6.172;2023-02-15T08:08:52;17.70;;;8.00;;
22861;SDS011;11598;50.652;6.172;2023-02-15T08:18:53;19.70;;;8.40;;
22861;SDS011;11598;50.652;6.172;2023-02-15T08:28:54;16.95;;;6.90;;
22861;SDS011;11598;50.652;6.172;2023-02-15T08:38:59;17.27;;;7.30;;
22861;SDS011;11598;50.652;6.172;2023-02-15T08:49:02;14.20;;;5.32;;
22861;SDS011;11598;50.652;6.172;2023-02-15T08:59:03;11.00;;;5.47;;
22861;SDS011;11598;50.652;6.172;2023-02-15T09:09:04;12.68;;;4.88;;
22861;SDS011;11598;50.652;6.172;2023-02-15T09:19:06;11.35;;;4.95;;
22861;SDS011;11598;50.652;6.172;2023-02-15T09:29:07;11.13;;;4.70;;
22861;SDS011;11598;50.652;6.172;2023-02-15T09:49:17;11.63;;;5.65;;
22861;SDS011;11598;50.652;6.172;2023-02-15T10:51:13;12.70;;;5.60;;
22861;SDS011;11598;50.652;6.172;2023-02-15T11:11:52;10.10;;;5.35;;
22861;SDS011;11598;50.652;6.172;2023-02-15T11:21:55;10.70;;;5.85;;
22861;SDS011;11598;50.652;6.172;2023-02-15T11:32:03;9.73;;;4.68;;
22861;SDS011;11598;50.652;6.172;2023-02-15T11:42:19;8.40;;;4.35;;
22861;SDS011;11598;50.652;6.172;2023-02-15T11:52:23;10.85;;;4.95;;
22861;SDS011;11598;50.652;6.172;2023-02-15T12:02:23;10.80;;;5.82;;
22861;SDS011;11598;50.652;6.172;2023-02-15T12:12:31;11.23;;;5.38;;
22861;SDS011;11598;50.652;6.172;2023-02-15T12:22:34;12.82;;;6.03;;
22861;SDS011;11598;50.652;6.172;2023-02-15T12:32:59;9.88;;;5.35;;
22861;SDS011;11598;50.652;6.172;2023-02-15T12:43:25;12.82;;;5.88;;
22861;SDS011;11598;50.652;6.172;2023-02-15T12:53:31;11.18;;;5.50;;
22861;SDS011;11598;50.652;6.172;2023-02-15T13:03:34;10.50;;;5.22;;
22861;SDS011;11598;50.652;6.172;2023-02-15T13:13:37;10.82;;;4.95;;
22861;SDS011;11598;50.652;6.172;2023-02-15T13:23:51;10.52;;;4.93;;
22861;SDS011;11598;50.652;6.172;2023-02-15T13:33:58;11.82;;;5.15;;
22861;SDS011;11598;50.652;6.172;2023-02-15T13:44:27;10.85;;;5.18;;
22861;SDS011;11598;50.652;6.172;2023-02-15T14:35:29;15.65;;;7.80;;
22861;SDS011;11598;50.652;6.172;2023-02-15T14:45:31;19.73;;;7.70;;
22861;SDS011;11598;50.652;6.172;2023-02-15T14:55:42;17.40;;;8.52;;
22861;SDS011;11598;50.652;6.172;2023-02-15T15:05:47;23.10;;;7.57;;
22861;SDS011;11598;50.652;6.172;2023-02-15T15:15:51;14.35;;;8.00;;
22861;SDS011;11598;50.652;6.172;2023-02-15T15:25:56;19.13;;;9.00;;
22861;SDS011;11598;50.652;6.172;2023-02-15T15:57:04;14.68;;;7.35;;
22861;SDS011;11598;50.652;6.172;2023-02-15T16:17:19;14.48;;;7.15;;
22861;SDS011;11598;50.652;6.172;2023-02-15T16:37:41;16.08;;;7.78;;
22861;SDS011;11598;50.652;6.172;2023-02-15T16:47:43;22.35;;;10.35;;
22861;SDS011;11598;50.652;6.172;2023-02-15T16:57:46;16.25;;;9.15;;
22861;SDS011;11598;50.652;6.172;2023-02-15T17:08:03;22.13;;;11.85;;
22861;SDS011;11598;50.652;6.172;2023-02-15T17:28:19;26.08;;;14.63;;
22861;SDS011;11598;50.652;6.172;2023-02-15T17:38:22;24.23;;;14.60;;
22861;SDS011;11598;50.652;6.172;2023-02-15T17:48:24;28.88;;;15.25;;
22861;SDS011;11598;50.652;6.172;2023-02-15T17:58:33;25.75;;;14.00;;
22861;SDS011;11598;50.652;6.172;2023-02-15T18:08:34;29.10;;;15.35;;
22861;SDS011;11598;50.652;6.172;2023-02-15T18:18:53;30.38;;;15.93;;
22861;SDS011;11598;50.652;6.172;2023-02-15T18:28:54;27.90;;;15.88;;
22861;SDS011;11598;50.652;6.172;2023-02-15T18:38:55;28.17;;;15.75;;
22861;SDS011;11598;50.652;6.172;2023-02-15T18:48:55;26.17;;;14.05;;
22861;SDS011;11598;50.652;6.172;2023-02-15T18:58:55;24.77;;;14.35;;
22861;SDS011;11598;50.652;6.172;2023-02-15T19:08:56;29.48;;;16.30;;
22861;SDS011;11598;50.652;6.172;2023-02-15T19:18:56;30.17;;;16.10;;
22861;SDS011;11598;50.652;6.172;2023-02-15T19:29:00;28.17;;;15.82;;
22861;SDS011;11598;50.652;6.172;2023-02-15T19:49:01;32.17;;;16.25;;
22861;SDS011;11598;50.652;6.172;2023-02-15T19:59:02;30.60;;;16.92;;
22861;SDS011;11598;50.652;6.172;2023-02-15T20:09:02;30.88;;;16.30;;
22861;SDS011;11598;50.652;6.172;2023-02-15T20:19:03;29.42;;;15.80;;
22861;SDS011;11598;50.652;6.172;2023-02-15T20:29:03;28.80;;;16.23;;
22861;SDS011;11598;50.652;6.172;2023-02-15T20:39:10;28.55;;;14.50;;
22861;SDS011;11598;50.652;6.172;2023-02-15T20:49:14;29.48;;;15.65;;
22861;SDS011;11598;50.652;6.172;2023-02-15T20:59:32;25.23;;;13.38;;
22861;SDS011;11598;50.652;6.172;2023-02-15T21:09:33;25.75;;;12.98;;
22861;SDS011;11598;50.652;6.172;2023-02-15T21:19:33;25.10;;;13.55;;
22861;SDS011;11598;50.652;6.172;2023-02-15T21:29:34;24.03;;;12.63;;
22861;SDS011;11598;50.652;6.172;2023-02-15T21:39:35;26.90;;;14.70;;
22861;SDS011;11598;50.652;6.172;2023-02-15T21:49:36;27.13;;;14.20;;
22861;SDS011;11598;50.652;6.172;2023-02-15T21:59:36;24.10;;;14.00;;
22861;SDS011;11598;50.652;6.172;2023-02-15T22:09:36;25.80;;;14.15;;
22861;SDS011;11598;50.652;6.172;2023-02-15T22:19:37;24.70;;;13.63;;
22861;SDS011;11598;50.652;6.172;2023-02-15T22:29:37;28.20;;;14.57;;
22861;SDS011;11598;50.652;6.172;2023-02-15T22:39:37;24.10;;;13.90;;
22861;SDS011;11598;50.652;6.172;2023-02-15T22:49:38;24.77;;;14.10;;
22861;SDS011;11598;50.652;6.172;2023-02-15T22:59:38;22.45;;;13.00;;
22861;SDS011;11598;50.652;6.172;2023-02-15T23:09:39;23.70;;;13.32;;
22861;SDS011;11598;50.652;6.172;2023-02-15T23:19:40;26.53;;;13.70;;
22861;SDS011;11598;50.652;6.172;2023-02-15T23:29:40;22.98;;;13.43;;
22861;SDS011;11598;50.652;6.172;2023-02-15T23:39:40;25.17;;;13.30;;
22861;SDS011;11598;50.652;6.172;2023-02-15T23:49:59;25.23;;;13.55;;
